Latest Weather Observations for Lucas Heights (ANSTO)

IDN60801

Issued at 8:32 am EST Tuesday 21 May 2019 (issued every 10 minutes, with the page automatically refreshed every 10 minutes)

About weather observations | Map of weather stations | Latest weather observations for NSW | Other Formats
Station Details ID: 066023 Name: LUCAS HEIGHTS (ANSTO) Lat: -34.05 Lon: 150.98 Height: 140.0 m
Data from the previous 72 hours. | See also: Recent months for locations in New South Wales
Date/Time
EST
Temp
°C
App
Temp
°C
Dew
Point
°C
Rel
Hum
%
Delta-T
°C
Wind Press
QNH
hPa
Press
MSL
hPa
Rain since
9am
mm
Dir  Spd
km/h
Gust
km/h
Spd
kts
Gust
kts
21/08:15am 15.9 11.9 10.3 69 3.0 WSW 22 24 12 13 1025.4 - 0.0
21/08:00am 15.8 12.3 10.1 69 3.0 WSW 19 22 10 12 1025.3 - 0.0
21/07:45am 15.4 11.8 9.8 69 2.9 WSW 19 20 10 11 1025.2 - 0.0
21/07:30am 15.1 11.5 9.8 70 2.8 WSW 19 20 10 11 1025.1 - 0.0
21/07:15am 14.8 11.7 10.3 74 2.4 WSW 17 20 9 11 1024.9 - 0.0
21/07:00am 13.3 9.4 9.4 77 2.0 WSW 20 22 11 12 1024.8 - 0.0
21/06:45am 14.2 10.4 9.7 74 2.3 WSW 20 20 11 11 1024.6 - 0.0
21/06:30am 14.2 10.9 11.0 81 1.7 WSW 19 20 10 11 1024.5 - 0.0
21/06:15am 10.8 7.3 8.9 88 0.9 WSW 17 20 9 11 1024.5 - 0.0
21/06:00am 10.5 6.8 8.1 85 1.2 WSW 17 19 9 10 1024.4 - 0.0
21/05:45am 12.7 9.8 9.8 82 1.5 WSW 15 19 8 10 1024.2 - 0.0
21/05:30am 12.1 9.4 10.4 89 0.9 WSW 15 19 8 10 1024.2 - 0.0
21/05:15am 10.7 8.4 9.0 89 0.8 WSW 11 17 6 9 1024.1 - 0.0
21/05:00am 10.7 8.4 9.0 89 0.8 WSW 11 15 6 8 1024.1 - 0.0
21/04:45am 10.5 7.8 8.9 90 0.8 WSW 13 15 7 8 1024.1 - 0.0
21/04:30am 10.8 8.1 9.1 89 0.9 WSW 13 15 7 8 1024.1 - 0.0
21/04:15am 11.2 8.7 9.8 91 0.7 WSW 13 15 7 8 1024.0 - 0.0
21/04:00am 10.7 8.4 9.0 89 0.8 WSW 11 13 6 7 1024.0 - 0.0
21/03:45am 11.1 8.9 9.3 89 0.9 WSW 11 13 6 7 1023.9 - 0.0
21/03:30am 12.6 10.5 11.0 90 0.8 WSW 13 15 7 8 1024.0 - 0.0
21/03:15am 12.9 10.6 11.8 93 0.6 WSW 15 15 8 8 1024.0 - 0.0
21/03:00am 11.1 8.7 9.9 92 0.6 WSW 13 15 7 8 1024.1 - 0.0
21/02:45am 10.9 8.4 9.7 92 0.6 WSW 13 15 7 8 1024.2 - 0.0
21/02:30am 10.7 8.5 9.4 92 0.7 WSW 11 13 6 7 1024.3 - 0.0
21/02:15am 10.8 9.0 9.5 92 0.7 W 9 11 5 6 1024.3 - 0.0
21/02:00am 11.0 9.3 9.7 92 0.7 W 9 11 5 6 1024.3 - 0.0
21/01:45am 11.5 9.9 10.2 92 0.7 W 9 9 5 5 1024.2 - 0.0
21/01:30am 11.3 10.0 10.0 92 0.7 W 7 9 4 5 1024.3 - 0.0
21/01:15am 11.7 10.2 10.4 92 0.7 W 9 11 5 6 1024.4 - 0.0
21/01:00am 11.6 10.4 10.3 92 0.7 WNW 7 7 4 4 1024.4 - 0.0
21/12:45am 12.0 10.5 10.6 91 0.7 NW 9 11 5 6 1024.3 - 0.0
21/12:30am 12.0 10.5 10.7 92 0.7 WNW 9 11 5 6 1024.4 - 0.0
21/12:15am 11.6 10.3 10.1 90 0.8 W 7 9 4 5 1024.7 - 0.0
21/12:00am 11.8 10.3 10.4 91 0.7 W 9 11 5 6 1024.8 - 0.0
 
Date/Time
EST
Temp
°C
App
Temp
°C
Dew
Point
°C
Rel
Hum
%
Delta-T
°C
Wind Press
QNH
hPa
Press
MSL
hPa
Rain since
9am
mm
Dir  Spd
km/h
Gust
km/h
Spd
kts
Gust
kts
20/11:45pm 12.0 10.5 10.5 90 0.8 W 9 11 5 6 1024.9 - 0.0
20/11:30pm 12.0 10.5 10.6 91 0.7 W 9 11 5 6 1024.8 - 0.0
20/11:15pm 12.0 10.9 10.5 90 0.8 W 7 7 4 4 1024.9 - 0.0
20/11:00pm 12.3 10.8 10.6 89 0.9 W 9 11 5 6 1025.0 - 0.0
20/10:45pm 13.0 10.9 11.3 89 0.9 WNW 13 15 7 8 1025.1 - 0.0
20/10:30pm 13.5 11.3 12.1 91 0.8 WNW 15 19 8 10 1025.2 - 0.0
20/10:15pm 12.8 11.1 11.1 89 0.9 WNW 11 15 6 8 1025.2 - 0.0
20/10:00pm 13.3 11.8 11.8 91 0.8 WNW 11 15 6 8 1025.3 - 0.0
20/09:45pm 13.2 11.6 11.6 90 0.9 WNW 11 15 6 8 1025.3 - 0.0
20/09:30pm 13.3 12.1 11.7 90 0.9 WNW 9 11 5 6 1025.3 - 0.0
20/09:15pm 13.5 12.3 11.7 89 1.0 NNW 9 9 5 5 1025.2 - 0.0
20/09:00pm 13.7 13.0 11.9 89 1.0 NNW 7 9 4 5 1025.1 - 0.0
20/08:45pm 13.8 13.1 11.9 88 1.0 N 7 11 4 6 1025.0 - 0.0
20/08:30pm 14.2 13.1 12.1 87 1.1 N 9 15 5 8 1024.9 - 0.0
20/08:15pm 14.5 13.5 12.4 87 1.2 N 9 13 5 7 1024.7 - 0.0
20/08:00pm 14.6 14.0 12.3 86 1.3 - 7 11 4 6 1024.7 - 0.0
20/07:45pm 15.0 14.4 12.4 84 1.4 N 7 15 4 8 1024.7 - 0.0
20/07:30pm 15.5 14.6 12.6 83 1.6 N 9 11 5 6 1024.6 - 0.0
20/07:15pm 15.8 14.6 12.8 82 1.7 NNE 11 13 6 7 1024.6 - 0.0
20/07:00pm 16.0 14.9 13.0 82 1.7 NNE 11 15 6 8 1024.6 - 0.0
20/06:45pm 16.0 15.2 12.9 82 1.7 NNE 9 13 5 7 1024.5 - 0.0
20/06:30pm 16.4 16.0 13.0 80 1.9 NE 7 11 4 6 1024.3 - 0.0
20/06:15pm 16.7 16.3 13.1 79 2.0 NE 7 9 4 5 1024.2 - 0.0
20/06:00pm 17.1 16.8 13.2 78 2.2 NE 7 9 4 5 1024.1 - 0.0
20/05:45pm 17.5 16.8 13.1 75 2.5 NNE 9 9 5 5 1024.0 - 0.0
20/05:30pm 18.1 17.8 13.2 73 2.8 NNE 7 7 4 4 1023.9 - 0.0
20/05:15pm 18.5 18.2 13.3 71 3.0 NE 7 7 4 4 1023.9 - 0.0
20/05:00pm 19.0 18.7 13.3 69 3.3 NNE 7 9 4 5 1023.9 - 0.0
20/04:45pm 19.3 19.0 13.3 68 3.4 NE 7 9 4 5 1023.8 - 0.0
20/04:30pm 19.5 19.1 13.1 66 3.6 NE 7 11 4 6 1023.8 - 0.0
20/04:15pm 19.9 18.9 12.4 62 4.2 NE 9 11 5 6 1023.7 - 0.0
20/04:00pm 20.3 19.9 12.4 60 4.5 NE 6 7 3 4 1023.7 - 0.0
20/03:45pm 20.4 20.4 12.3 59 4.6 NE 4 6 2 3 1023.7 - 0.0
20/03:30pm 20.6 20.6 12.3 59 4.7 NNE 4 6 2 3 1023.8 - 0.0
20/03:15pm 20.8 20.8 12.5 59 4.7 NE 4 6 2 3 1023.9 - 0.0
20/03:00pm 20.9 21.3 12.4 58 4.8 NNE 2 6 1 3 1023.9 - 0.0
20/02:45pm 21.0 21.4 12.4 58 4.9 NNE 2 6 1 3 1024.0 - 0.0
20/02:30pm 20.7 20.7 12.4 59 4.7 NNW 4 6 2 3 1024.1 - 0.0
20/02:15pm 20.6 20.6 12.5 59 4.6 NNE 4 7 2 4 1024.2 - 0.0
20/02:00pm 20.7 20.8 12.8 60 4.5 N 4 6 2 3 1024.4 - 0.0
20/01:45pm 20.0 19.6 12.4 61 4.3 NNW 6 7 3 4 1024.6 - 0.0
20/01:30pm 20.3 19.8 12.2 59 4.6 N 6 11 3 6 1024.7 - 0.0
20/01:15pm 20.5 20.2 12.7 61 4.4 N 6 11 3 6 1024.9 - 0.0
20/01:00pm 20.1 19.6 12.2 60 4.4 NNW 6 7 3 4 1025.0 - 0.0
20/12:45pm 20.3 19.9 12.3 60 4.5 NNW 6 9 3 5 1025.2 - 0.0
20/12:30pm 20.1 19.8 12.7 62 4.2 NNW 6 11 3 6 1025.6 - 0.0
20/12:15pm 19.9 19.5 12.3 61 4.3 NW 6 9 3 5 1025.8 - 0.0
20/12:00pm 20.2 19.2 12.2 60 4.5 NW 9 13 5 7 1026.0 - 0.0
20/11:45am 19.7 19.1 12.2 62 4.2 NW 7 11 4 6 1026.3 - 0.0
20/11:30am 19.4 19.5 12.8 65 3.7 NW 4 9 2 5 1026.7 - 0.0
20/11:15am 18.4 18.5 12.7 69 3.2 W 4 7 2 4 1027.0 - 0.0
20/11:00am 18.0 18.0 12.5 70 3.1 W 4 6 2 3 1027.3 - 0.0
20/10:45am 17.9 17.5 12.3 70 3.1 W 6 7 3 4 1027.5 - 0.0
20/10:30am 18.0 17.6 12.5 70 3.1 W 6 9 3 5 1027.8 - 0.0
20/10:15am 17.7 17.1 12.3 70 3.0 W 7 11 4 6 1027.8 - 0.0
20/10:00am 17.7 16.8 12.5 71 2.9 W 9 15 5 8 1027.9 - 0.0
20/09:45am 17.2 16.3 12.6 74 2.6 W 9 15 5 8 1027.9 - 0.0
20/09:30am 16.9 16.0 12.6 76 2.4 W 9 15 5 8 1028.0 - 0.0
20/09:15am 16.6 16.1 12.7 78 2.2 W 7 15 4 8 1028.1 - 0.0
20/09:00am 16.3 15.8 12.7 79 2.0 W 7 13 4 7 1028.1 - 0.0
20/08:45am 16.0 16.0 13.6 86 1.4 W 6 9 3 5 1028.0 - 0.0
20/08:30am 14.4 13.9 12.8 90 0.9 W 7 9 4 5 1028.0 - 0.0
20/08:15am 13.0 12.3 11.5 91 0.8 WSW 6 7 3 4 1027.9 - 0.0
20/08:00am 12.6 11.8 11.0 90 0.8 SW 6 7 3 4 1027.8 - 0.0
20/07:45am 12.6 12.2 11.1 91 0.8 WSW 4 9 2 5 1027.7 - 0.0
20/07:30am 12.4 11.3 10.8 90 0.8 WSW 7 11 4 6 1027.6 - 0.0
20/07:15am 12.2 10.3 10.5 89 0.9 SW 11 15 6 8 1027.6 - 0.0
20/07:00am 12.5 10.3 10.8 89 0.9 SW 13 15 7 8 1027.5 - 0.0
20/06:45am 12.6 10.3 10.6 88 1.0 SW 13 15 7 8 1027.5 - 0.0
20/06:30am 12.7 10.4 10.4 86 1.2 WSW 13 15 7 8 1027.5 - 0.0
20/06:15am 14.0 11.5 11.2 83 1.5 WSW 15 17 8 9 1027.4 - 0.0
20/06:00am 14.9 12.9 12.6 86 1.3 WSW 15 19 8 10 1027.3 - 0.0
20/05:45am 14.6 13.4 12.8 89 1.0 W 11 15 6 8 1027.3 - 0.0
20/05:30am 12.9 11.1 10.9 88 1.1 W 11 15 6 8 1027.2 - 0.0
20/05:15am 13.0 11.1 10.6 85 1.3 W 11 15 6 8 1027.2 - 0.0
20/05:00am 14.4 12.1 11.7 84 1.5 W 15 19 8 10 1027.1 - 0.0
20/04:45am 15.4 13.0 12.6 83 1.5 W 17 20 9 11 1027.0 - 0.0
20/04:30am 15.4 13.0 12.6 83 1.5 W 17 20 9 11 1027.1 - 0.0
20/04:15am 15.7 13.8 12.9 83 1.6 W 15 19 8 10 1027.2 - 0.0
20/04:00am 15.6 13.7 13.0 84 1.5 W 15 19 8 10 1027.3 - 0.0
20/03:45am 15.2 13.3 13.1 87 1.2 W 15 17 8 9 1027.4 - 0.0
20/03:30am 14.1 11.9 12.2 88 1.0 WSW 15 17 8 9 1027.6 - 0.0
20/03:15am 13.6 11.3 11.6 88 1.1 WSW 15 15 8 8 1027.6 - 0.0
20/03:00am 14.0 11.6 11.4 84 1.4 WSW 15 19 8 10 1027.8 - 0.0
20/02:45am 15.0 12.6 12.5 85 1.4 WSW 17 19 9 10 1027.8 - 0.0
20/02:30am 15.5 13.2 13.0 85 1.4 W 17 19 9 10 1027.8 - 0.0
20/02:15am 14.9 13.0 12.9 88 1.1 W 15 17 8 9 1027.9 - 0.0
20/02:00am 14.5 12.4 12.4 87 1.2 WSW 15 17 8 9 1027.9 - 0.0
20/01:45am 15.1 12.9 13.3 89 1.0 WSW 17 19 9 10 1028.0 - 0.0
20/01:30am 14.4 12.1 13.1 92 0.7 WSW 17 19 9 10 1028.1 - 0.0
20/01:15am 12.7 10.2 11.2 91 0.8 WSW 15 17 8 9 1028.1 - 0.0
20/01:00am 12.5 10.3 10.9 90 0.8 W 13 15 7 8 1028.1 - 0.0
20/12:45am 12.6 10.8 11.0 90 0.8 W 11 15 6 8 1028.2 - 0.0
20/12:30am 12.5 10.7 10.9 90 0.8 W 11 15 6 8 1028.3 - 0.0
20/12:15am 12.3 10.4 10.4 88 1.0 WSW 11 15 6 8 1028.4 - 0.0
20/12:00am 12.6 11.1 10.6 88 1.0 WSW 9 11 5 6 1028.5 - 0.0
 
Date/Time
EST
Temp
°C
App
Temp
°C
Dew
Point
°C
Rel
Hum
%
Delta-T
°C
Wind Press
QNH
hPa
Press
MSL
hPa
Rain since
9am
mm
Dir  Spd
km/h
Gust
km/h
Spd
kts
Gust
kts
19/11:45pm 13.0 11.6 11.0 88 1.1 W 9 11 5 6 1028.7 - 0.0
19/11:30pm 13.4 12.1 11.3 87 1.1 W 9 11 5 6 1028.9 - 0.0
19/11:15pm 13.8 12.6 11.7 87 1.1 W 9 11 5 6 1029.0 - 0.0
19/11:00pm 13.7 12.9 11.6 87 1.1 W 7 11 4 6 1029.1 - 0.0
19/10:45pm 13.7 12.1 11.5 86 1.2 WNW 11 13 6 7 1029.2 - 0.0
19/10:30pm 13.9 12.7 11.5 85 1.3 WNW 9 11 5 6 1029.3 - 0.0
19/10:15pm 14.0 13.1 11.5 85 1.3 WNW 7 9 4 5 1029.4 - 0.0
19/10:00pm 14.5 13.5 12.2 86 1.3 NW 9 11 5 6 1029.4 - 0.0
19/09:45pm 14.0 12.8 11.6 85 1.3 NW 9 11 5 6 1029.3 - 0.0
19/09:30pm 14.0 13.2 11.6 85 1.3 WNW 7 11 4 6 1029.3 - 0.0
19/09:15pm 14.1 13.9 11.7 85 1.3 WNW 4 6 2 3 1029.3 - 0.0
19/09:00pm 14.2 14.4 11.7 85 1.3 NNW 2 4 1 2 1029.3 - 0.0
19/08:45pm 14.3 14.1 11.8 85 1.4 N 4 6 2 3 1029.3 - 0.0
19/08:30pm 14.3 13.7 11.7 84 1.4 NNE 6 7 3 4 1029.2 - 0.0
19/08:15pm 14.4 13.6 11.8 84 1.4 NE 7 11 4 6 1029.2 - 0.0
19/08:00pm 14.5 13.3 11.7 83 1.5 NE 9 11 5 6 1029.1 - 0.0
19/07:45pm 14.8 13.7 11.8 82 1.6 NE 9 11 5 6 1029.1 - 0.0
19/07:30pm 15.1 14.0 11.9 81 1.7 NE 9 11 5 6 1029.1 - 0.0
19/07:15pm 15.6 14.5 12.0 79 2.0 NE 9 11 5 6 1029.0 - 0.0
19/07:00pm 16.0 14.6 12.2 78 2.1 NE 11 13 6 7 1028.9 - 0.0
19/06:45pm 16.1 14.7 12.1 77 2.2 NE 11 13 6 7 1028.9 - 0.0
19/06:30pm 16.6 15.2 12.1 75 2.5 NE 11 13 6 7 1028.7 - 0.0
19/06:15pm 16.9 15.9 12.2 74 2.6 NE 9 11 5 6 1028.6 - 0.0
19/06:00pm 17.1 16.4 11.9 71 2.9 NE 7 9 4 5 1028.6 - 0.0
19/05:45pm 17.4 16.7 11.9 70 3.0 NE 7 11 4 6 1028.5 - 0.0
19/05:30pm 17.8 17.0 11.8 68 3.3 ENE 7 9 4 5 1028.5 - 0.0
19/05:15pm 18.3 17.2 11.8 66 3.6 ENE 9 11 5 6 1028.5 - 0.0
19/05:00pm 18.8 17.6 11.7 63 3.9 ENE 9 15 5 8 1028.4 - 0.0
19/04:45pm 19.2 17.6 11.7 62 4.2 ENE 11 19 6 10 1028.4 - 0.0
19/04:30pm 19.5 17.9 11.7 60 4.3 ENE 11 17 6 9 1028.5 - 0.0
19/04:15pm 19.7 17.8 11.7 60 4.5 ENE 13 17 7 9 1028.5 - 0.0
19/04:00pm 20.2 18.3 11.8 58 4.7 ENE 13 19 7 10 1028.6 - 0.0
19/03:45pm 20.6 19.2 12.1 58 4.8 NE 11 17 6 9 1028.6 - 0.0
19/03:30pm 20.8 19.4 12.1 57 4.9 NE 11 19 6 10 1028.6 - 0.0
19/03:15pm 21.1 20.6 12.5 58 4.9 ENE 7 15 4 8 1028.6 - 0.0
19/03:00pm 20.8 19.5 12.4 58 4.8 ESE 11 19 6 10 1028.5 - 0.0
19/02:45pm 20.9 19.6 12.6 59 4.7 SE 11 19 6 10 1028.6 - 0.0
19/02:30pm 20.9 19.3 12.9 60 4.6 ESE 13 19 7 10 1028.7 - 0.0
19/02:15pm 20.7 19.7 13.4 63 4.2 SE 11 19 6 10 1028.9 - 0.0
19/02:00pm 20.3 19.9 14.0 67 3.7 SSE 9 17 5 9 1029.0 - 0.0
19/01:45pm 20.1 20.0 13.9 67 3.6 SSE 7 13 4 7 1029.1 - 0.0
19/01:30pm 20.2 20.2 13.7 66 3.8 SE 6 11 3 6 1029.3 - 0.0
19/01:15pm 20.5 19.6 13.7 65 3.9 SE 11 17 6 9 1029.4 - 0.0
19/01:00pm 21.4 20.7 14.2 63 4.2 SE 11 17 6 9 1029.4 - 0.0
19/12:45pm 21.0 21.0 14.3 65 3.9 SSE 7 15 4 8 1029.6 - 0.0
19/12:30pm 21.0 20.1 13.6 62 4.3 SE 11 19 6 10 1029.7 - 0.0
19/12:15pm 20.8 20.5 13.3 62 4.3 E 7 11 4 6 1030.1 - 0.0
19/12:00pm 20.2 19.4 12.8 62 4.2 E 9 15 5 8 1030.3 - 0.0
19/11:45am 20.7 20.0 13.2 62 4.3 E 9 15 5 8 1030.5 - 0.0
19/11:30am 20.9 20.3 13.6 63 4.2 E 9 15 5 8 1030.7 - 0.0
19/11:15am 20.3 19.3 13.4 64 4.0 ESE 11 17 6 9 1031.0 - 0.0
19/11:00am 20.4 19.7 14.4 68 3.5 SE 11 17 6 9 1031.2 - 0.0
19/10:45am 20.2 19.5 14.4 69 3.4 SE 11 17 6 9 1031.3 - 0.0
19/10:30am 20.1 19.4 14.3 69 3.4 SE 11 19 6 10 1031.5 - 0.0
19/10:15am 19.8 19.5 14.4 71 3.2 SE 9 19 5 10 1031.6 - 0.0
19/10:00am 19.8 19.6 14.8 73 2.9 SE 9 17 5 9 1031.6 - 0.0
19/09:45am 19.3 18.7 14.7 74 2.7 SE 11 15 6 8 1031.7 - 0.0
19/09:30am 19.1 18.9 14.6 75 2.6 SSE 9 17 5 9 1031.7 - 0.0
19/09:15am 18.8 18.5 14.5 76 2.5 SSE 9 15 5 8 1031.7 - 0.0
19/09:00am 18.1 17.0 14.3 78 2.2 SSE 13 19 7 10 1031.6 - 0.0
19/08:45am 17.2 16.4 14.0 81 1.8 SSE 11 15 6 8 1031.6 - 0.0
19/08:30am 16.5 15.6 13.6 83 1.6 SSE 11 15 6 8 1031.5 - 0.0
19/08:15am 16.0 14.6 13.3 84 1.5 SSE 13 15 7 8 1031.3 - 0.0
19/08:00am 15.8 14.4 13.3 85 1.4 SSE 13 15 7 8 1031.4 - 0.0
19/07:45am 15.5 14.5 13.4 87 1.2 SSE 11 15 6 8 1031.4 - 0.0
19/07:30am 15.0 13.9 13.2 89 1.0 SSE 11 15 6 8 1031.3 - 0.0
19/07:15am 14.6 13.5 13.0 90 0.9 S 11 15 6 8 1031.2 - 0.0
19/07:00am 14.4 13.2 12.8 90 0.9 S 11 13 6 7 1031.0 - 0.0
19/06:45am 14.0 12.7 12.5 91 0.8 SSE 11 19 6 10 1030.7 - 0.0
19/06:30am 13.8 12.1 12.3 91 0.8 SSE 13 19 7 10 1030.6 - 0.0
19/06:15am 14.1 12.8 12.6 91 0.8 SSE 11 15 6 8 1030.4 - 0.0
19/06:00am 14.1 12.9 12.7 91 0.8 SSE 11 15 6 8 1030.3 - 0.0
19/05:45am 14.2 12.6 12.7 91 0.8 S 13 15 7 8 1030.2 - 0.0
19/05:30am 14.1 12.4 12.6 91 0.8 SSE 13 15 7 8 1030.0 - 0.0
19/05:15am 14.2 13.0 12.7 91 0.8 SSE 11 13 6 7 1029.8 - 0.0
19/05:00am 14.3 12.7 12.8 91 0.8 SSE 13 15 7 8 1029.7 - 0.0
19/04:45am 14.4 12.8 12.9 91 0.8 SSE 13 15 7 8 1029.7 - 0.0
19/04:30am 14.5 13.3 12.9 90 0.9 SSE 11 15 6 8 1029.7 - 0.0
19/04:15am 14.5 13.0 13.0 91 0.8 SSE 13 15 7 8 1029.6 - 0.0
19/04:00am 14.7 13.6 13.1 90 0.9 SSE 11 15 6 8 1029.7 - 0.0
19/03:45am 14.7 13.6 13.1 90 0.9 SSE 11 13 6 7 1029.8 - 0.0
19/03:30am 14.9 13.9 13.3 90 0.9 SSE 11 15 6 8 1029.8 - 0.0
19/03:15am 15.1 14.1 13.5 90 0.9 SSE 11 13 6 7 1029.9 - 0.0
19/03:00am 15.0 14.4 13.4 90 0.9 SSE 9 13 5 7 1029.9 - 0.0
19/02:45am 15.1 14.1 13.4 89 1.0 SSE 11 13 6 7 1029.8 - 0.0
19/02:30am 15.1 13.7 13.4 89 1.0 SSE 13 17 7 9 1029.8 - 0.0
19/02:15am 15.1 14.1 13.3 89 1.0 SSE 11 15 6 8 1029.9 - 0.0
19/02:00am 15.3 14.3 13.4 88 1.1 SSE 11 15 6 8 1030.0 - 0.0
19/01:45am 15.6 14.7 13.7 88 1.1 SSE 11 13 6 7 1030.1 - 0.0
19/01:30am 15.7 14.4 13.7 88 1.1 SSE 13 15 7 8 1030.2 - 0.0
19/01:15am 15.9 15.1 14.0 88 1.1 SSE 11 13 6 7 1030.4 - 0.0
19/01:00am 15.8 15.0 13.9 88 1.1 SSE 11 15 6 8 1030.4 - 0.0
19/12:45am 15.6 14.7 13.8 89 1.0 SSE 11 15 6 8 1030.5 - 0.0
19/12:30am 15.2 13.8 13.3 88 1.1 SSE 13 15 7 8 1030.8 - 0.0
19/12:15am 15.2 14.5 13.3 88 1.1 SE 9 11 5 6 1030.9 - 0.0
19/12:00am 15.3 15.1 13.6 90 1.0 SSE 7 15 4 8 1031.2 - 0.0
 
Date/Time
EST
Temp
°C
App
Temp
°C
Dew
Point
°C
Rel
Hum
%
Delta-T
°C
Wind Press
QNH
hPa
Press
MSL
hPa
Rain since
9am
mm
Dir  Spd
km/h
Gust
km/h
Spd
kts
Gust
kts
18/11:45pm 14.8 13.0 13.3 91 0.8 S 15 19 8 10 1031.1 - 0.0
18/11:30pm 14.6 12.7 13.0 90 0.9 S 15 17 8 9 1031.1 - 0.0
18/11:15pm 14.7 13.6 13.0 89 0.9 S 11 13 6 7 1031.1 - 0.0
18/11:00pm 14.8 13.7 13.1 89 0.9 S 11 13 6 7 1031.3 - 0.0
18/10:45pm 15.2 14.6 13.5 89 1.0 S 9 13 5 7 1031.3 - 0.0
18/10:30pm 15.2 14.3 13.6 90 0.9 S 11 13 6 7 1031.3 - 0.0
18/10:15pm 15.1 14.1 13.4 89 1.0 S 11 15 6 8 1031.3 - 0.0
18/10:00pm 15.3 14.7 13.6 90 1.0 S 9 11 5 6 1031.2 - 0.0
18/09:45pm 15.4 14.9 13.7 90 1.0 SSW 9 11 5 6 1031.1 - 0.0
18/09:30pm 15.5 15.4 13.8 90 1.0 S 7 11 4 6 1031.0 - 0.0
18/09:15pm 15.6 15.5 13.9 90 1.0 S 7 9 4 5 1030.9 - 0.0
18/09:00pm 15.5 14.7 13.9 90 0.9 SSE 11 11 6 6 1030.8 - 0.0
18/08:45pm 15.3 14.4 13.7 90 0.9 SSE 11 13 6 7 1030.6 - 0.0
18/08:30pm 15.3 14.4 13.6 90 1.0 SSE 11 15 6 8 1030.4 - 0.0
18/08:15pm 15.4 14.1 13.6 89 1.0 SSE 13 15 7 8 1030.2 - 0.0
18/08:00pm 15.4 14.4 13.5 88 1.1 SSE 11 15 6 8 1030.2 - 0.0
18/07:45pm 15.5 14.5 13.5 88 1.1 SSE 11 15 6 8 1030.1 - 0.0
18/07:30pm 15.6 14.6 13.5 87 1.2 SSE 11 15 6 8 1030.0 - 0.0
18/07:15pm 15.8 14.8 13.5 86 1.3 SSE 11 17 6 9 1029.9 - 0.0
18/07:00pm 15.9 15.0 13.6 86 1.3 SSE 11 15 6 8 1029.9 - 0.0
18/06:45pm 16.0 15.0 13.5 85 1.4 SSE 11 13 6 7 1029.7 - 0.0
18/06:30pm 16.5 15.6 13.7 83 1.6 SE 11 15 6 8 1029.6 - 0.0
18/06:15pm 16.7 15.8 13.8 83 1.7 SE 11 15 6 8 1029.5 - 0.0
18/06:00pm 16.9 16.0 13.8 82 1.8 SE 11 15 6 8 1029.4 - 0.0
18/05:45pm 17.2 16.7 13.9 81 1.9 SE 9 13 5 7 1029.3 - 0.0
18/05:30pm 17.5 17.1 14.0 80 2.0 SE 9 15 5 8 1029.2 - 0.0
18/05:15pm 17.8 17.4 14.0 78 2.2 ESE 9 11 5 6 1029.1 - 0.0
18/05:00pm 18.1 17.3 14.0 77 2.4 SE 11 15 6 8 1028.9 - 0.0
18/04:45pm 18.5 17.7 14.1 75 2.5 SE 11 17 6 9 1028.8 - 0.0
18/04:30pm 18.9 18.2 14.3 74 2.7 SE 11 15 6 8 1028.6 - 0.0
18/04:15pm 19.2 18.1 14.3 73 2.8 ESE 13 19 7 10 1028.6 - 0.0
18/04:00pm 19.5 18.4 14.3 72 3.0 SE 13 19 7 10 1028.5 - 0.0
18/03:45pm 19.7 18.2 14.3 71 3.1 ESE 15 19 8 10 1028.5 - 0.0
18/03:30pm 19.9 18.4 14.3 70 3.3 ESE 15 19 8 10 1028.5 - 0.0
18/03:15pm 20.2 19.0 14.1 68 3.6 ESE 13 19 7 10 1028.6 - 0.0
18/03:00pm 20.4 19.3 14.3 68 3.6 ESE 13 19 7 10 1028.4 - 0.0
18/02:45pm 20.6 19.9 14.3 67 3.7 ESE 11 15 6 8 1028.4 - 0.0
18/02:30pm 20.4 19.2 14.1 67 3.7 ESE 13 19 7 10 1028.4 - 0.0
18/02:15pm 21.2 20.4 14.0 63 4.2 ESE 11 19 6 10 1028.5 - 0.0
18/02:00pm 21.1 21.0 14.0 64 4.1 SE 7 13 4 7 1028.6 - 0.0
18/01:45pm 21.2 21.4 14.1 64 4.2 E 6 15 3 8 1028.7 - 0.0
18/01:30pm 21.2 21.2 14.1 64 4.2 ESE 7 15 4 8 1028.8 - 0.0
18/01:15pm 21.3 21.2 14.0 63 4.3 SE 7 11 4 6 1028.9 - 0.0
18/01:00pm 21.4 21.4 13.6 61 4.5 ESE 6 11 3 6 1029.0 - 0.0
18/12:45pm 21.7 21.8 13.8 60 4.6 NE 6 7 3 4 1029.2 - 0.0
18/12:30pm 21.4 21.5 13.9 62 4.4 ENE 6 11 3 6 1029.4 - 0.0
18/12:15pm 20.8 20.9 13.8 64 4.1 E 6 11 3 6 1029.6 - 0.0
18/12:00pm 20.9 20.9 14.1 65 4.0 E 7 11 4 6 1029.7 - 0.0
18/11:45am 20.6 20.5 14.0 66 3.8 ESE 7 15 4 8 1030.0 - 0.0
18/11:30am 20.8 21.0 14.1 65 3.9 SE 6 11 3 6 1030.1 - 0.0
18/11:15am 20.8 21.0 14.3 66 3.8 ESE 6 11 3 6 1030.4 - 0.0
18/11:00am 20.9 21.2 14.6 67 3.7 E 6 11 3 6 1030.5 - 0.0
18/10:45am 20.5 20.7 14.6 69 3.5 ESE 7 11 4 6 1030.6 - 0.0
18/10:30am 20.1 20.6 14.9 72 3.1 ESE 6 11 3 6 1030.7 - 0.0
18/10:15am 19.5 19.9 14.7 74 2.8 SE 6 11 3 6 1030.7 - 0.0
18/10:00am 19.1 19.4 14.6 75 2.6 ESE 6 9 3 5 1030.6 - 0.0
18/09:45am 18.7 19.4 14.6 77 2.4 SSE 4 7 2 4 1030.6 - 0.0
18/09:30am 18.5 19.9 14.4 77 2.4 CALM 0 2 0 1 1030.6 - 0.0
18/09:15am 18.5 19.3 14.9 79 2.1 SSW 4 6 2 3 1030.6 - 0.0
18/09:00am 17.8 18.3 14.9 83 1.7 S 6 7 3 4 1030.6 - 0.2
18/08:45am 17.1 17.3 14.8 86 1.3 S 7 11 4 6 1030.5 - 0.2

Other formats

Comma delimited format used in spreadsheet applications
http://www.bom.gov.au/fwo/IDN60801/IDN60801.95757.axf

JavaScript Object Notation format (JSON) in row-major order
http://www.bom.gov.au/fwo/IDN60801/IDN60801.95757.json

Data quality

Most of these data are generated automatically and are frequently updated. Quality checks on data are not normally performed. It is possible for incorrect values to appear. Refer to information at About Latest Weather Observations and please check the disclaimer before using these data.